Enter the Airport ICAO Code

Search by Airport or City

Current Weather

LGAV | Athens International Airport (Eleftherios Venizelos Airport)

Athens, Greece

Last Update 26 Minutes Ago

Sky with Few Clouds

Temperature of 29 ºC

Strong Winds from North with Gusts

Temperature

29 ºC

Dew Point Temperature

13 ºC

Relative Humidity

37.59 %

Wind Direction

North (020º, Without Significant Variations)

Wind Velocity

41 km/h (22 kt)

Gusts

61 km/h (33 kt)

Visibility

Greater than 10 Kilometers

Sea Level Pressure

1011 hPa (Hectopascals)

Layers of Clouds

5% to 30% of Sky Covered from 762 mts (2500 ft) Above Ground Level.

METAR LGAV 131050Z 02022G33KT 9999 FEW025 29/13 Q1011 NOSIG

Weather Forecast

LGAV | Athens International Airport (Eleftherios Venizelos Airport)

Athens, Greece

Forecast valid for the next 25 Hours

In 1 hour it is expected the begining of:

Sky with Few Clouds

Moderate to Strong Winds from North with Gusts

In 5 to 7 hours it is expected the begining of:

Moderate to Strong Winds from North

In 17 to 19 hours it is expected the begining of:

Moderate to Strong Winds from North with Gusts

Maximum Temperature

No Data

Minimum Temperature

No Data

TAF LGAV 131100Z 1312/1412 02020G30KT 9999 FEW025 BECMG 1316/1318 02020KT BECMG 1404/1406 02020G30KT